<?xml version="1.0" encoding="UTF-8" standalone="no" ?>
<gpx xmlns="http://www.topografix.com/GPX/1/1" xmlns:xsi="http://www.w3.org/2001/XMLSchema-instance" xsi:schemaLocation="http://www.topografix.com/GPX/1/1 http://www.topografix.com/GPX/1/1/gpx.xsd" version="1.1" creator="VisuGPX - https://www.visugpx.com">
  <metadata>
    <name>Les vans - Les armas</name>
    <desc><![CDATA[Balade dans le quartiers des Armas entre Monts et Rivière.]]></desc>
  </metadata>
  <wpt lat="44.40549" lon="4.13438">
    <ele>166.69</ele>
    <name><![CDATA[0000001]]></name>
    <type><![CDATA[Point de départ]]></type>
  </wpt>
  <wpt lat="44.40547" lon="4.13441">
    <ele>176.69</ele>
    <name><![CDATA[0000002]]></name>
    <desc><![CDATA[<p><br /><h3>Nom: Segment: 1</h3><br />Heure de départ: 12/08/2017 13:33<br/>Heure d'arrivée: 12/08/2017 15:31<br/>Distance: 4,8km (01:58)<br/>Temps déplacement: 01:16<br/>Vitesse moyenne: 2,42 km/h<br/>Vitesse moyenne mouv.: 3,71 km/h<br/>Vitesse Max.: 12,61 km/h<br/>Altitude minimale: 138 m<br/>Altitude maximale: 290 m<br/>Vitesse de montée: 415,2 m/h<br/>Vitesse de descente: -387,9 m/h<br/>Gain d'altitude: 387 m<br/>Perte d'altitude: -391 m<br/>Temps de montée: 00:56<br/>Temps de descente: 01:00<br/></p>]]></desc>
    <type><![CDATA[Point d'arrivée]]></type>
  </wpt>
  <trk>
    <name><![CDATA[2017-12-08 13:33]]></name>
    <desc><![CDATA[<p>Heure de départ: 12/08/2017 13:33<br/>Heure d'arrivée: 12/08/2017 15:31<br/>Distance: 4,8 km (01:58)<br/>Temps déplacement: 01:16<br/>Vitesse moyenne: 2,42 km/h<br/>Vitesse moyenne mouv.: 3,75 km/h<br/>Vitesse Max.: 12,61 km/h<br/>Altitude minimale: 138 m<br/>Altitude maximale: 290 m<br/>Vitesse de montée: 262,8 m/h<br/>Vitesse de descente: -170,5 m/h<br/>Gain d'altitude: 193 m<br/>Perte d'altitude: -204 m<br/>Temps de montée: 00:44<br/>Temps de descente: 01:11<br/></p><hr align="center" width="480" style="height: 2px; width: 517px"/>]]></desc>
    <trkseg>
      <trkpt lat="44.40549" lon="4.13438">
        <ele>166.69</ele>
        <time>2017-12-08T12:33:58Z</time>
      </trkpt>
      <trkpt lat="44.40524" lon="4.13396">
        <ele>193.69</ele>
        <time>2017-12-08T12:34:55Z</time>
      </trkpt>
      <trkpt lat="44.40523" lon="4.1334">
        <ele>187.69</ele>
        <time>2017-12-08T12:35:55Z</time>
      </trkpt>
      <trkpt lat="44.40527" lon="4.13285">
        <ele>185.69</ele>
        <time>2017-12-08T12:36:56Z</time>
      </trkpt>
      <trkpt lat="44.40572" lon="4.1328">
        <ele>158.69</ele>
        <time>2017-12-08T12:40:52Z</time>
      </trkpt>
      <trkpt lat="44.40563" lon="4.13198">
        <ele>138.69</ele>
        <time>2017-12-08T12:41:11Z</time>
      </trkpt>
      <trkpt lat="44.40565" lon="4.13141">
        <ele>167.69</ele>
        <time>2017-12-08T12:41:52Z</time>
      </trkpt>
      <trkpt lat="44.40567" lon="4.1306">
        <ele>174.69</ele>
        <time>2017-12-08T12:42:37Z</time>
      </trkpt>
      <trkpt lat="44.4056" lon="4.12998">
        <ele>157.69</ele>
        <time>2017-12-08T12:43:37Z</time>
      </trkpt>
      <trkpt lat="44.40538" lon="4.12946">
        <ele>177.69</ele>
        <time>2017-12-08T12:44:22Z</time>
      </trkpt>
      <trkpt lat="44.40569" lon="4.1289">
        <ele>163.69</ele>
        <time>2017-12-08T12:45:22Z</time>
      </trkpt>
      <trkpt lat="44.40591" lon="4.12835">
        <ele>175.69</ele>
        <time>2017-12-08T12:46:22Z</time>
      </trkpt>
      <trkpt lat="44.40626" lon="4.12767">
        <ele>183.69</ele>
        <time>2017-12-08T12:47:37Z</time>
      </trkpt>
      <trkpt lat="44.40656" lon="4.1273">
        <ele>191.69</ele>
        <time>2017-12-08T12:48:28Z</time>
      </trkpt>
      <trkpt lat="44.40699" lon="4.12682">
        <ele>165.69</ele>
        <time>2017-12-08T12:49:33Z</time>
      </trkpt>
      <trkpt lat="44.40687" lon="4.12621">
        <ele>179.69</ele>
        <time>2017-12-08T12:50:33Z</time>
      </trkpt>
      <trkpt lat="44.40736" lon="4.12576">
        <ele>213.69</ele>
        <time>2017-12-08T12:52:04Z</time>
      </trkpt>
      <trkpt lat="44.40765" lon="4.12535">
        <ele>207.69</ele>
        <time>2017-12-08T12:53:12Z</time>
      </trkpt>
      <trkpt lat="44.40768" lon="4.12485">
        <ele>210.69</ele>
        <time>2017-12-08T12:53:57Z</time>
      </trkpt>
      <trkpt lat="44.40782" lon="4.12437">
        <ele>229.69</ele>
        <time>2017-12-08T12:54:42Z</time>
      </trkpt>
      <trkpt lat="44.40831" lon="4.12424">
        <ele>227.69</ele>
        <time>2017-12-08T12:55:42Z</time>
      </trkpt>
      <trkpt lat="44.40876" lon="4.12422">
        <ele>236.69</ele>
        <time>2017-12-08T12:56:42Z</time>
      </trkpt>
      <trkpt lat="44.40871" lon="4.1237">
        <ele>231.69</ele>
        <time>2017-12-08T12:57:27Z</time>
      </trkpt>
      <trkpt lat="44.40868" lon="4.12258">
        <ele>217.69</ele>
        <time>2017-12-08T13:00:28Z</time>
      </trkpt>
      <trkpt lat="44.40835" lon="4.12233">
        <ele>219.69</ele>
        <time>2017-12-08T13:01:57Z</time>
      </trkpt>
      <trkpt lat="44.40798" lon="4.12135">
        <ele>228.69</ele>
        <time>2017-12-08T13:03:37Z</time>
      </trkpt>
      <trkpt lat="44.40785" lon="4.12082">
        <ele>226.69</ele>
        <time>2017-12-08T13:04:57Z</time>
      </trkpt>
      <trkpt lat="44.40758" lon="4.12035">
        <ele>227.69</ele>
        <time>2017-12-08T13:05:42Z</time>
      </trkpt>
      <trkpt lat="44.40751" lon="4.11972">
        <ele>248.69</ele>
        <time>2017-12-08T13:06:57Z</time>
      </trkpt>
      <trkpt lat="44.4079" lon="4.11919">
        <ele>247.69</ele>
        <time>2017-12-08T13:07:58Z</time>
      </trkpt>
      <trkpt lat="44.40811" lon="4.11862">
        <ele>238.69</ele>
        <time>2017-12-08T13:09:12Z</time>
      </trkpt>
      <trkpt lat="44.40859" lon="4.11828">
        <ele>262.69</ele>
        <time>2017-12-08T13:10:11Z</time>
      </trkpt>
      <trkpt lat="44.4092" lon="4.11781">
        <ele>257.69</ele>
        <time>2017-12-08T13:11:42Z</time>
      </trkpt>
      <trkpt lat="44.4095" lon="4.11735">
        <ele>229.69</ele>
        <time>2017-12-08T13:19:58Z</time>
      </trkpt>
      <trkpt lat="44.40985" lon="4.1168">
        <ele>237.69</ele>
        <time>2017-12-08T13:20:58Z</time>
      </trkpt>
      <trkpt lat="44.41022" lon="4.11652">
        <ele>254.69</ele>
        <time>2017-12-08T13:21:58Z</time>
      </trkpt>
      <trkpt lat="44.41046" lon="4.11607">
        <ele>256.69</ele>
        <time>2017-12-08T13:22:28Z</time>
      </trkpt>
      <trkpt lat="44.41073" lon="4.11573">
        <ele>277.69</ele>
        <time>2017-12-08T13:23:12Z</time>
      </trkpt>
      <trkpt lat="44.41104" lon="4.11535">
        <ele>251.69</ele>
        <time>2017-12-08T13:23:58Z</time>
      </trkpt>
      <trkpt lat="44.4114" lon="4.11505">
        <ele>265.69</ele>
        <time>2017-12-08T13:24:30Z</time>
      </trkpt>
      <trkpt lat="44.41172" lon="4.11468">
        <ele>273.69</ele>
        <time>2017-12-08T13:25:03Z</time>
      </trkpt>
      <trkpt lat="44.41205" lon="4.11389">
        <ele>247.69</ele>
        <time>2017-12-08T13:26:18Z</time>
      </trkpt>
      <trkpt lat="44.41249" lon="4.11348">
        <ele>278.69</ele>
        <time>2017-12-08T13:27:03Z</time>
      </trkpt>
      <trkpt lat="44.41279" lon="4.11284">
        <ele>277.69</ele>
        <time>2017-12-08T13:28:03Z</time>
      </trkpt>
      <trkpt lat="44.41314" lon="4.1125">
        <ele>257.69</ele>
        <time>2017-12-08T13:29:03Z</time>
      </trkpt>
      <trkpt lat="44.41369" lon="4.11319">
        <ele>290.69</ele>
        <time>2017-12-08T13:32:18Z</time>
      </trkpt>
      <trkpt lat="44.4137" lon="4.11386">
        <ele>280.69</ele>
        <time>2017-12-08T13:34:28Z</time>
      </trkpt>
      <trkpt lat="44.41332" lon="4.1144">
        <ele>285.69</ele>
        <time>2017-12-08T13:35:27Z</time>
      </trkpt>
      <trkpt lat="44.414" lon="4.11448">
        <ele>259.69</ele>
        <time>2017-12-08T13:37:27Z</time>
      </trkpt>
      <trkpt lat="44.41434" lon="4.11467">
        <ele>250.69</ele>
        <time>2017-12-08T13:38:12Z</time>
      </trkpt>
      <trkpt lat="44.41446" lon="4.11518">
        <ele>260.69</ele>
        <time>2017-12-08T13:43:42Z</time>
      </trkpt>
      <trkpt lat="44.4145" lon="4.1157">
        <ele>259.69</ele>
        <time>2017-12-08T13:44:27Z</time>
      </trkpt>
      <trkpt lat="44.41437" lon="4.11645">
        <ele>267.69</ele>
        <time>2017-12-08T13:46:12Z</time>
      </trkpt>
      <trkpt lat="44.41455" lon="4.11711">
        <ele>288.69</ele>
        <time>2017-12-08T13:47:42Z</time>
      </trkpt>
      <trkpt lat="44.41415" lon="4.11728">
        <ele>259.69</ele>
        <time>2017-12-08T13:48:12Z</time>
      </trkpt>
      <trkpt lat="44.41391" lon="4.11808">
        <ele>244.69</ele>
        <time>2017-12-08T13:50:42Z</time>
      </trkpt>
      <trkpt lat="44.41321" lon="4.11875">
        <ele>269.69</ele>
        <time>2017-12-08T13:53:41Z</time>
      </trkpt>
      <trkpt lat="44.41309" lon="4.11933">
        <ele>277.69</ele>
        <time>2017-12-08T13:55:10Z</time>
      </trkpt>
      <trkpt lat="44.41293" lon="4.11993">
        <ele>245.69</ele>
        <time>2017-12-08T13:56:10Z</time>
      </trkpt>
      <trkpt lat="44.41273" lon="4.12042">
        <ele>269.69</ele>
        <time>2017-12-08T13:57:26Z</time>
      </trkpt>
      <trkpt lat="44.41258" lon="4.12095">
        <ele>256.69</ele>
        <time>2017-12-08T13:58:10Z</time>
      </trkpt>
      <trkpt lat="44.41235" lon="4.12157">
        <ele>254.69</ele>
        <time>2017-12-08T13:59:17Z</time>
      </trkpt>
      <trkpt lat="44.41226" lon="4.12267">
        <ele>266.69</ele>
        <time>2017-12-08T14:00:50Z</time>
      </trkpt>
      <trkpt lat="44.41195" lon="4.12313">
        <ele>249.69</ele>
        <time>2017-12-08T14:02:20Z</time>
      </trkpt>
      <trkpt lat="44.41185" lon="4.12362">
        <ele>247.69</ele>
        <time>2017-12-08T14:04:50Z</time>
      </trkpt>
      <trkpt lat="44.41163" lon="4.12418">
        <ele>252.69</ele>
        <time>2017-12-08T14:05:35Z</time>
      </trkpt>
      <trkpt lat="44.41145" lon="4.12462">
        <ele>249.69</ele>
        <time>2017-12-08T14:06:40Z</time>
      </trkpt>
      <trkpt lat="44.41125" lon="4.12514">
        <ele>247.69</ele>
        <time>2017-12-08T14:07:26Z</time>
      </trkpt>
      <trkpt lat="44.41089" lon="4.1257">
        <ele>258.69</ele>
        <time>2017-12-08T14:08:26Z</time>
      </trkpt>
      <trkpt lat="44.41067" lon="4.1261">
        <ele>227.69</ele>
        <time>2017-12-08T14:09:11Z</time>
      </trkpt>
      <trkpt lat="44.41029" lon="4.12642">
        <ele>238.69</ele>
        <time>2017-12-08T14:10:11Z</time>
      </trkpt>
      <trkpt lat="44.4099" lon="4.12664">
        <ele>217.69</ele>
        <time>2017-12-08T14:10:56Z</time>
      </trkpt>
      <trkpt lat="44.40957" lon="4.12704">
        <ele>217.69</ele>
        <time>2017-12-08T14:12:17Z</time>
      </trkpt>
      <trkpt lat="44.4092" lon="4.127">
        <ele>217.69</ele>
        <time>2017-12-08T14:13:02Z</time>
      </trkpt>
      <trkpt lat="44.4087" lon="4.12725">
        <ele>203.69</ele>
        <time>2017-12-08T14:13:47Z</time>
      </trkpt>
      <trkpt lat="44.40842" lon="4.12766">
        <ele>204.69</ele>
        <time>2017-12-08T14:14:47Z</time>
      </trkpt>
      <trkpt lat="44.40808" lon="4.12804">
        <ele>215.69</ele>
        <time>2017-12-08T14:16:32Z</time>
      </trkpt>
      <trkpt lat="44.40789" lon="4.1285">
        <ele>198.69</ele>
        <time>2017-12-08T14:17:02Z</time>
      </trkpt>
      <trkpt lat="44.40751" lon="4.12884">
        <ele>193.69</ele>
        <time>2017-12-08T14:17:47Z</time>
      </trkpt>
      <trkpt lat="44.40736" lon="4.12942">
        <ele>185.69</ele>
        <time>2017-12-08T14:18:25Z</time>
      </trkpt>
      <trkpt lat="44.40718" lon="4.1299">
        <ele>187.69</ele>
        <time>2017-12-08T14:19:29Z</time>
      </trkpt>
      <trkpt lat="44.40669" lon="4.12996">
        <ele>205.69</ele>
        <time>2017-12-08T14:22:08Z</time>
      </trkpt>
      <trkpt lat="44.40618" lon="4.1302">
        <ele>194.69</ele>
        <time>2017-12-08T14:23:00Z</time>
      </trkpt>
      <trkpt lat="44.40555" lon="4.13093">
        <ele>170.69</ele>
        <time>2017-12-08T14:25:17Z</time>
      </trkpt>
      <trkpt lat="44.40555" lon="4.13145">
        <ele>162.69</ele>
        <time>2017-12-08T14:26:51Z</time>
      </trkpt>
      <trkpt lat="44.40544" lon="4.13197">
        <ele>165.69</ele>
        <time>2017-12-08T14:28:51Z</time>
      </trkpt>
      <trkpt lat="44.40542" lon="4.13249">
        <ele>172.69</ele>
        <time>2017-12-08T14:29:09Z</time>
      </trkpt>
      <trkpt lat="44.40534" lon="4.13307">
        <ele>202.69</ele>
        <time>2017-12-08T14:30:01Z</time>
      </trkpt>
      <trkpt lat="44.40518" lon="4.1339">
        <ele>162.69</ele>
        <time>2017-12-08T14:30:41Z</time>
      </trkpt>
      <trkpt lat="44.40547" lon="4.13441">
        <ele>176.69</ele>
        <time>2017-12-08T14:31:59Z</time>
      </trkpt>
    </trkseg>
  </trk>
</gpx>